createdAt,value
2022-10-11T00:01:51.633Z,9.65
2022-10-11T00:04:18.313Z,9.20
2022-10-11T00:06:45.177Z,9.30
2022-10-11T00:09:12.087Z,9.05
2022-10-11T00:11:42.188Z,9.75
2022-10-11T00:14:13.777Z,10.02
2022-10-11T00:16:47.662Z,10.48
2022-10-11T00:19:18.653Z,8.77
2022-10-11T00:21:45.872Z,9.20
2022-10-11T00:24:16.646Z,9.68
2022-10-11T00:26:46.773Z,8.50
2022-10-11T00:29:16.535Z,8.75
2022-10-11T00:31:47.076Z,8.65
2022-10-11T00:34:16.274Z,9.00
2022-10-11T00:36:45.882Z,8.65
2022-10-11T00:39:14.599Z,8.15
2022-10-11T00:41:41.962Z,8.55
2022-10-11T00:44:22.196Z,8.45
2022-10-11T00:47:02.129Z,8.27
2022-10-11T00:49:37.610Z,8.43
2022-10-11T00:52:14.077Z,7.38
2022-10-11T00:54:43.123Z,7.60
2022-10-11T00:57:17.703Z,7.65
2022-10-11T00:59:49.574Z,7.68
2022-10-11T01:04:43.157Z,7.10
2022-10-11T01:07:11.097Z,7.50
2022-10-11T01:09:37.702Z,7.53
2022-10-11T01:12:12.536Z,7.45
2022-10-11T01:15:00.170Z,7.05
2022-10-11T01:17:41.257Z,7.70
2022-10-11T01:20:40.038Z,7.03
2022-10-11T01:23:40.245Z,7.00
2022-10-11T01:26:37.448Z,7.35
2022-10-11T01:29:35.928Z,6.88
2022-10-11T01:32:15.305Z,7.97
2022-10-11T01:35:28.151Z,6.85
2022-10-11T01:38:41.245Z,6.95
2022-10-11T01:41:19.012Z,6.82
2022-10-11T01:43:47.146Z,7.85
2022-10-11T01:46:14.946Z,7.55
2022-10-11T01:48:53.082Z,6.82
2022-10-11T01:51:27.337Z,7.10
2022-10-11T01:54:19.401Z,6.82
2022-10-11T01:57:04.549Z,6.28
2022-10-11T01:59:59.587Z,7.22
2022-10-11T02:02:41.252Z,6.32
2022-10-11T02:05:20.011Z,6.88
2022-10-11T02:07:52.232Z,6.07
2022-10-11T02:10:29.000Z,7.20
2022-10-11T02:13:03.235Z,6.50
2022-10-11T02:15:32.911Z,6.68
2022-10-11T02:18:03.330Z,6.38
2022-10-11T02:20:32.866Z,6.50
2022-10-11T02:23:08.064Z,6.30
2022-10-11T02:25:36.833Z,6.32
2022-10-11T02:28:10.826Z,6.57
2022-10-11T02:30:38.848Z,6.95
2022-10-11T02:33:10.198Z,6.05
2022-10-11T02:35:42.629Z,6.60
2022-10-11T02:38:19.162Z,6.18
2022-10-11T02:40:50.686Z,5.97
2022-10-11T02:43:24.983Z,6.70
2022-10-11T02:45:56.181Z,6.70
2022-10-11T02:48:25.200Z,7.55
2022-10-11T02:50:54.211Z,6.85
2022-10-11T02:53:21.257Z,6.25
2022-10-11T02:55:51.769Z,6.65
2022-10-11T02:58:18.659Z,6.43
2022-10-11T03:00:45.503Z,6.72
2022-10-11T03:03:12.162Z,7.13
2022-10-11T03:05:41.532Z,6.78
2022-10-11T03:08:09.985Z,6.57
2022-10-11T03:10:37.259Z,7.22
2022-10-11T03:13:03.989Z,6.18
2022-10-11T03:15:30.584Z,7.07
2022-10-11T03:17:57.253Z,6.65
2022-10-11T03:20:24.904Z,7.20
2022-10-11T03:22:51.473Z,6.40
2022-10-11T03:25:18.339Z,6.53
2022-10-11T03:27:46.033Z,6.40
2022-10-11T03:30:17.303Z,6.00
2022-10-11T03:32:44.700Z,6.95
2022-10-11T03:35:11.407Z,6.30
2022-10-11T03:37:38.152Z,6.47
2022-10-11T03:40:06.982Z,6.32
2022-10-11T03:42:33.567Z,6.38
2022-10-11T03:45:04.614Z,6.90
2022-10-11T03:47:32.103Z,6.60
2022-10-11T03:49:58.698Z,6.35
2022-10-11T03:52:25.472Z,5.97
2022-10-11T03:54:52.508Z,6.50
2022-10-11T03:57:19.313Z,6.65
2022-10-11T03:59:45.919Z,6.13
2022-10-11T04:02:12.576Z,6.57
2022-10-11T04:04:39.380Z,6.20
2022-10-11T04:07:06.026Z,6.30
2022-10-11T04:09:32.659Z,6.45
2022-10-11T04:12:01.451Z,6.63
2022-10-11T04:14:28.159Z,6.25
2022-10-11T04:16:57.375Z,5.82
2022-10-11T04:19:27.169Z,5.75
2022-10-11T04:21:53.732Z,5.78
2022-10-11T04:24:20.356Z,6.43
2022-10-11T04:26:46.988Z,6.35
2022-10-11T04:29:13.954Z,6.95
2022-10-11T04:31:40.538Z,6.20
2022-10-11T04:34:07.401Z,6.03
2022-10-11T04:36:34.121Z,6.13
2022-10-11T04:39:01.744Z,5.80
2022-10-11T04:41:29.499Z,6.03
2022-10-11T04:43:56.562Z,5.60
2022-10-11T04:46:23.762Z,6.63
2022-10-11T04:48:50.827Z,6.10
2022-10-11T04:51:18.348Z,6.53
2022-10-11T04:53:45.145Z,7.22
2022-10-11T04:56:12.119Z,6.38
2022-10-11T04:58:42.204Z,6.00
2022-10-11T05:01:09.794Z,6.68
2022-10-11T05:03:37.732Z,6.25
2022-10-11T05:06:09.518Z,6.57
2022-10-11T05:08:38.293Z,6.13
2022-10-11T05:11:07.337Z,5.80
2022-10-11T05:13:35.713Z,5.45
2022-10-11T05:16:05.979Z,7.43
2022-10-11T05:18:36.969Z,6.97
2022-10-11T05:21:14.504Z,6.82
2022-10-11T05:23:41.100Z,6.38
2022-10-11T05:26:08.413Z,6.05
2022-10-11T05:28:35.660Z,6.13
2022-10-11T05:31:02.323Z,6.22
2022-10-11T05:33:29.152Z,6.60
2022-10-11T05:35:55.823Z,6.70
2022-10-11T05:38:23.028Z,6.75
2022-10-11T05:40:49.768Z,6.88
2022-10-11T05:43:16.419Z,7.80
2022-10-11T05:45:43.715Z,6.47
2022-10-11T05:48:10.867Z,7.10
2022-10-11T05:50:38.481Z,7.00
2022-10-11T05:53:05.805Z,7.32
2022-10-11T05:55:40.624Z,6.35
2022-10-11T05:58:08.367Z,7.68
2022-10-11T06:00:41.349Z,7.22
2022-10-11T06:03:10.706Z,6.97
2022-10-11T06:05:43.285Z,6.97
2022-10-11T06:08:11.211Z,7.55
2022-10-11T06:10:38.778Z,7.13
2022-10-11T06:13:06.197Z,7.32
2022-10-11T06:15:33.649Z,6.95
2022-10-11T06:18:00.491Z,6.93
2022-10-11T06:20:27.210Z,6.93
2022-10-11T06:22:53.979Z,6.55
2022-10-11T06:25:21.730Z,7.00
2022-10-11T06:27:49.676Z,6.97
2022-10-11T06:30:16.330Z,7.18
2022-10-11T06:32:42.919Z,6.90
2022-10-11T06:35:09.781Z,6.95
2022-10-11T06:37:36.959Z,6.22
2022-10-11T06:40:04.102Z,6.25
2022-10-11T06:42:30.733Z,6.80
2022-10-11T06:44:58.639Z,5.75
2022-10-11T06:47:25.471Z,5.65
2022-10-11T06:49:52.145Z,5.40
2022-10-11T06:52:18.787Z,6.63
2022-10-11T06:54:45.746Z,5.00
2022-10-11T06:57:12.630Z,5.18
2022-10-11T06:59:39.288Z,6.38
2022-10-11T07:02:07.259Z,5.03
2022-10-11T07:04:34.055Z,6.15
2022-10-11T07:07:00.891Z,5.93
2022-10-11T07:09:31.788Z,5.88
2022-10-11T07:12:03.435Z,5.97
2022-10-11T07:14:33.369Z,5.55
2022-10-11T07:17:09.632Z,5.72
2022-10-11T07:19:38.509Z,6.15
2022-10-11T07:22:07.163Z,6.63
2022-10-11T07:24:34.063Z,6.82
2022-10-11T07:27:05.052Z,7.32
2022-10-11T07:29:33.004Z,7.83
2022-10-11T07:32:01.780Z,6.85
2022-10-11T07:34:32.192Z,6.85
2022-10-11T07:37:02.108Z,6.75
2022-10-11T07:39:37.958Z,6.05
2022-10-11T07:42:06.949Z,6.32
2022-10-11T07:44:37.415Z,5.65
2022-10-11T07:47:06.695Z,5.90
2022-10-11T07:49:37.325Z,6.45
2022-10-11T07:52:04.045Z,6.03
2022-10-11T07:54:30.659Z,5.93
2022-10-11T07:56:57.314Z,7.78
2022-10-11T07:59:23.905Z,6.78
2022-10-11T08:01:50.760Z,7.32
2022-10-11T08:04:17.512Z,7.32
2022-10-11T08:06:44.136Z,7.47
2022-10-11T08:09:12.234Z,6.80
2022-10-11T08:11:39.806Z,7.45
2022-10-11T08:14:09.139Z,8.15
2022-10-11T08:16:36.526Z,7.10
2022-10-11T08:19:03.479Z,7.07
2022-10-11T08:21:30.542Z,6.75
2022-10-11T08:23:57.180Z,7.45
2022-10-11T08:26:24.798Z,7.40
2022-10-11T08:28:52.183Z,7.78
2022-10-11T08:31:19.113Z,6.68
2022-10-11T08:33:45.887Z,6.80
2022-10-11T08:36:13.500Z,7.18
2022-10-11T08:38:41.270Z,7.15
2022-10-11T08:41:36.621Z,6.82
2022-10-11T08:44:51.783Z,7.90
2022-10-11T08:47:33.937Z,8.43
2022-10-11T08:50:01.204Z,8.57
2022-10-11T08:52:34.891Z,7.43
2022-10-11T08:55:08.174Z,7.53
2022-10-11T08:57:37.452Z,7.38
2022-10-11T09:00:16.866Z,7.75
2022-10-11T09:03:18.819Z,7.63
2022-10-11T09:06:15.219Z,8.25
2022-10-11T09:09:00.181Z,7.15
2022-10-11T09:12:03.881Z,7.72
2022-10-11T09:15:03.765Z,8.05
2022-10-11T09:17:58.182Z,7.93
2022-10-11T09:20:46.638Z,8.65
2022-10-11T09:23:34.383Z,8.80
2022-10-11T09:26:07.417Z,7.47
2022-10-11T09:29:09.933Z,8.65
2022-10-11T09:34:14.234Z,7.82
2022-10-11T09:37:09.833Z,7.97
2022-10-11T09:39:45.925Z,8.40
2022-10-11T09:42:12.923Z,7.68
2022-10-11T09:44:45.809Z,7.55
2022-10-11T09:47:26.865Z,8.18
2022-10-11T09:50:15.635Z,8.70
2022-10-11T09:53:00.612Z,7.72
2022-10-11T09:55:40.967Z,9.40
2022-10-11T09:58:33.420Z,9.15
2022-10-11T10:01:21.697Z,10.07
2022-10-11T10:04:03.058Z,8.75
2022-10-11T10:06:29.664Z,8.82
2022-10-11T10:09:25.294Z,10.50
2022-10-11T10:11:52.948Z,10.48
2022-10-11T10:14:28.106Z,11.50
2022-10-11T10:17:18.417Z,12.15
2022-10-11T10:19:55.581Z,10.48
2022-10-11T10:22:31.993Z,11.25
2022-10-11T10:25:04.843Z,11.77
2022-10-11T10:27:32.706Z,11.05
2022-10-11T10:30:08.845Z,12.10
2022-10-11T10:33:06.306Z,11.23
2022-10-11T10:35:47.229Z,10.52
2022-10-11T10:38:46.525Z,9.80
2022-10-11T10:41:19.060Z,11.10
2022-10-11T10:43:52.463Z,16.27
2022-10-11T10:46:47.736Z,15.73
2022-10-11T10:49:48.899Z,22.70
2022-10-11T10:52:43.598Z,19.70
2022-10-11T10:55:14.023Z,20.67
2022-10-11T10:57:40.557Z,23.00
2022-10-11T11:00:16.732Z,24.92
2022-10-11T11:03:01.891Z,27.77
2022-10-11T11:05:44.257Z,28.05
2022-10-11T11:08:13.374Z,24.77
2022-10-11T11:11:00.018Z,24.95
2022-10-11T11:13:45.378Z,23.92
2022-10-11T11:16:20.839Z,27.40
2022-10-11T11:18:52.991Z,22.63
2022-10-11T11:21:19.611Z,27.55
2022-10-11T11:24:22.889Z,29.23
2022-10-11T11:27:01.458Z,26.77
2022-10-11T11:30:08.714Z,30.00
2022-10-11T11:32:57.096Z,31.17
2022-10-11T11:35:53.529Z,33.03
2022-10-11T11:38:34.050Z,32.65
2022-10-11T11:41:07.068Z,29.08
2022-10-11T11:43:39.741Z,31.50
2022-10-11T11:46:19.453Z,29.02
2022-10-11T11:48:48.783Z,26.77
2022-10-11T11:51:21.224Z,34.28
2022-10-11T11:54:08.370Z,31.13
2022-10-11T11:57:03.242Z,35.25
2022-10-11T12:00:15.162Z,33.92
2022-10-11T12:02:55.330Z,32.13
2022-10-11T12:05:28.000Z,33.85
2022-10-11T12:08:01.479Z,30.23
2022-10-11T12:10:34.203Z,33.35
2022-10-11T12:13:09.222Z,32.95
2022-10-11T12:15:37.570Z,35.85
2022-10-11T12:18:15.335Z,36.67
2022-10-11T12:21:23.781Z,35.65
2022-10-11T12:23:53.219Z,39.40
2022-10-11T12:26:29.045Z,39.70
2022-10-11T12:29:28.394Z,40.58
2022-10-11T12:32:03.692Z,41.28
2022-10-11T12:34:43.627Z,36.60
2022-10-11T12:37:19.562Z,38.15
2022-10-11T12:39:49.234Z,37.55
2022-10-11T12:42:32.524Z,41.63
2022-10-11T12:45:11.964Z,35.97
2022-10-11T12:48:07.245Z,38.47
2022-10-11T12:50:34.851Z,40.38
2022-10-11T12:53:27.905Z,41.63
2022-10-11T12:56:18.381Z,42.72
2022-10-11T12:58:48.126Z,43.00
2022-10-11T13:01:15.465Z,36.55
2022-10-11T13:03:50.828Z,40.03
2022-10-11T13:06:27.049Z,44.03
2022-10-11T13:08:57.588Z,40.53
2022-10-11T13:11:31.277Z,37.22
2022-10-11T13:14:01.526Z,37.00
2022-10-11T13:16:42.003Z,33.42
2022-10-11T13:19:13.232Z,30.85
2022-10-11T13:21:40.878Z,28.00
2022-10-11T13:24:15.799Z,23.52
2022-10-11T13:26:46.447Z,20.48
2022-10-11T13:29:38.424Z,18.92
2022-10-11T13:32:24.245Z,17.98
2022-10-11T13:35:23.954Z,17.50
2022-10-11T13:37:51.861Z,18.67
2022-10-11T13:40:22.299Z,21.00
2022-10-11T13:42:50.909Z,26.15
2022-10-11T13:45:23.348Z,27.92
2022-10-11T13:47:51.796Z,26.35
2022-10-11T13:50:35.869Z,25.98
2022-10-11T13:53:23.975Z,23.70
2022-10-11T13:56:00.411Z,26.42
2022-10-11T13:58:30.338Z,30.92
2022-10-11T14:01:03.505Z,34.92
2022-10-11T14:03:42.555Z,26.77
2022-10-11T14:06:10.035Z,26.35
2022-10-11T14:08:45.110Z,24.30
2022-10-11T14:11:14.268Z,23.00
2022-10-11T14:13:47.349Z,23.25
2022-10-11T14:16:30.787Z,21.77
2022-10-11T14:19:00.418Z,21.75
2022-10-11T14:21:35.207Z,26.25
2022-10-11T14:24:05.769Z,27.58
2022-10-11T14:26:38.535Z,28.63
2022-10-11T14:29:27.587Z,29.30
2022-10-11T14:31:59.651Z,28.05
2022-10-11T14:34:27.689Z,28.30
2022-10-11T14:36:55.209Z,29.25
2022-10-11T14:39:25.113Z,30.10
2022-10-11T14:41:53.217Z,29.48
2022-10-11T14:44:21.912Z,28.58
2022-10-11T14:46:50.900Z,27.85
2022-10-11T14:49:20.472Z,28.80
2022-10-11T14:51:50.326Z,27.65
2022-10-11T14:54:19.150Z,29.65
2022-10-11T14:56:47.443Z,28.10
2022-10-11T14:59:16.940Z,33.08
2022-10-11T15:01:45.242Z,31.48
2022-10-11T15:04:12.361Z,35.95
2022-10-11T15:06:41.899Z,35.05
2022-10-11T15:09:08.734Z,38.13
2022-10-11T15:11:38.040Z,35.13
2022-10-11T15:14:06.105Z,43.28
2022-10-11T15:16:34.794Z,47.03
2022-10-11T15:19:01.645Z,46.75
2022-10-11T15:21:29.369Z,48.72
2022-10-11T15:23:57.176Z,49.53
2022-10-11T15:26:28.149Z,51.63
2022-10-11T15:28:57.442Z,53.00
2022-10-11T15:31:24.441Z,52.33
2022-10-11T15:33:53.202Z,51.33
2022-10-11T15:36:22.559Z,53.30
2022-10-11T15:38:50.284Z,57.85
2022-10-11T15:41:19.941Z,54.28
2022-10-11T15:43:50.504Z,55.88
2022-10-11T15:46:22.302Z,53.03
2022-10-11T15:51:18.230Z,54.70
2022-10-11T15:53:45.531Z,48.47
2022-10-11T15:56:18.911Z,55.88
2022-10-11T15:58:46.613Z,53.60
2022-10-11T16:01:16.619Z,54.88
2022-10-11T16:03:44.496Z,50.95
2022-10-11T16:06:12.092Z,53.75
2022-10-11T16:08:40.061Z,59.42
2022-10-11T16:11:08.712Z,55.53
2022-10-11T16:13:37.290Z,58.03
2022-10-11T16:16:06.311Z,58.47
2022-10-11T16:18:35.600Z,55.30
2022-10-11T16:21:06.989Z,53.70
2022-10-11T16:23:34.643Z,56.28
2022-10-11T16:26:04.423Z,58.45
2022-10-11T16:28:32.856Z,63.60
2022-10-11T16:31:05.492Z,56.85
2022-10-11T16:33:33.072Z,58.97
2022-10-11T16:36:19.567Z,61.65
2022-10-11T16:38:47.114Z,62.30
2022-10-11T16:41:13.835Z,60.97
2022-10-11T16:43:41.741Z,67.22
2022-10-11T16:46:11.124Z,66.47
2022-10-11T16:48:40.139Z,63.67
2022-10-11T16:51:08.034Z,68.30
2022-10-11T16:53:38.070Z,64.95
2022-10-11T16:56:07.261Z,65.47
2022-10-11T16:58:36.840Z,68.47
2022-10-11T17:01:09.134Z,71.18
2022-10-11T17:03:36.990Z,68.60
2022-10-11T17:06:04.780Z,67.88
2022-10-11T17:08:32.540Z,62.35
2022-10-11T17:10:59.317Z,66.20
2022-10-11T17:13:27.144Z,64.63
2022-10-11T17:15:53.871Z,65.40
2022-10-11T17:18:21.204Z,67.93
2022-10-11T17:20:47.910Z,75.90
2022-10-11T17:23:15.469Z,71.88
2022-10-11T17:25:43.343Z,72.45
2022-10-11T17:28:10.035Z,70.97
2022-10-11T17:30:37.578Z,73.30
2022-10-11T17:33:04.242Z,74.10
2022-10-11T17:35:33.133Z,72.03
2022-10-11T17:38:05.118Z,76.18
2022-10-11T17:40:33.608Z,66.43
2022-10-11T17:43:00.369Z,65.60
2022-10-11T17:45:28.139Z,58.47
2022-10-11T17:47:54.980Z,69.30
2022-10-11T17:50:23.483Z,73.65
2022-10-11T17:52:50.140Z,73.13
2022-10-11T17:55:18.298Z,79.55
2022-10-11T17:57:45.748Z,72.65
2022-10-11T18:00:14.225Z,69.53
2022-10-11T18:02:41.561Z,73.32
2022-10-11T18:05:09.288Z,73.50
2022-10-11T18:07:35.943Z,69.32
2022-10-11T18:10:04.071Z,72.30
2022-10-11T18:12:30.913Z,75.63
2022-10-11T18:14:58.752Z,77.55
2022-10-11T18:17:25.490Z,75.55
2022-10-11T18:19:52.836Z,76.47
2022-10-11T18:22:19.434Z,74.82
2022-10-11T18:24:46.717Z,73.00
2022-10-11T18:27:13.488Z,68.40
2022-10-11T18:29:40.810Z,72.05
2022-10-11T18:32:07.365Z,74.75
2022-10-11T18:34:34.832Z,74.68
2022-10-11T18:37:01.923Z,74.85
2022-10-11T18:39:30.987Z,71.35
2022-10-11T18:41:57.635Z,74.45
2022-10-11T18:44:25.077Z,76.40
2022-10-11T18:46:51.912Z,73.78
2022-10-11T18:49:18.574Z,76.45
2022-10-11T18:51:47.116Z,72.97
2022-10-11T18:54:20.333Z,73.43
2022-10-11T18:56:49.696Z,76.03
2022-10-11T18:59:16.584Z,74.43
2022-10-11T19:01:45.815Z,75.55
2022-10-11T19:04:16.173Z,74.20
2022-10-11T19:06:54.333Z,73.05
2022-10-11T19:09:24.410Z,65.13
2022-10-11T19:12:00.241Z,62.47
2022-10-11T19:14:30.322Z,74.47
2022-10-11T19:16:58.097Z,66.70
2022-10-11T19:19:29.247Z,72.38
2022-10-11T19:21:56.776Z,70.63
2022-10-11T19:24:25.846Z,63.40
2022-10-11T19:27:01.190Z,73.55
2022-10-11T19:29:29.261Z,74.13
2022-10-11T19:31:59.814Z,64.15
2022-10-11T19:34:28.039Z,71.30
2022-10-11T19:36:57.240Z,79.35
2022-10-11T19:39:24.983Z,72.47
2022-10-11T19:41:53.130Z,72.78
2022-10-11T19:44:20.224Z,69.35
2022-10-11T19:46:51.930Z,74.28
2022-10-11T19:49:21.542Z,77.00
2022-10-11T19:51:48.935Z,70.00
2022-10-11T19:54:17.112Z,64.93
2022-10-11T19:56:45.464Z,68.78
2022-10-11T19:59:12.782Z,68.05
2022-10-11T20:01:41.085Z,65.30
2022-10-11T20:04:22.635Z,68.63
2022-10-11T20:06:59.309Z,64.85
2022-10-11T20:09:30.636Z,75.78
2022-10-11T20:12:03.065Z,69.45
2022-10-11T20:14:29.683Z,76.65
2022-10-11T20:16:57.157Z,75.70
2022-10-11T20:19:30.695Z,83.32
2022-10-11T20:21:59.893Z,73.22
2022-10-11T20:24:28.981Z,73.40
2022-10-11T20:26:57.184Z,70.05
2022-10-11T20:29:27.245Z,71.72
2022-10-11T20:31:54.780Z,67.88
2022-10-11T20:34:21.353Z,60.67
2022-10-11T20:36:49.483Z,63.58
2022-10-11T20:39:16.869Z,64.22
2022-10-11T20:41:44.610Z,68.88
2022-10-11T20:44:13.162Z,63.95
2022-10-11T20:46:40.885Z,67.88
2022-10-11T20:49:10.470Z,69.80
2022-10-11T20:51:40.265Z,65.93
2022-10-11T20:54:11.991Z,60.83
2022-10-11T20:56:39.770Z,59.75
2022-10-11T20:59:06.915Z,67.18
2022-10-11T21:01:38.291Z,72.57
2022-10-11T21:04:07.095Z,69.57
2022-10-11T21:06:34.790Z,75.35
2022-10-11T21:09:01.769Z,68.28
2022-10-11T21:11:30.897Z,75.28
2022-10-11T21:13:59.705Z,71.93
2022-10-11T21:16:27.420Z,70.28
2022-10-11T21:18:57.178Z,72.05
2022-10-11T21:21:24.367Z,70.18
2022-10-11T21:24:02.777Z,70.50
2022-10-11T21:26:30.487Z,74.88
2022-10-11T21:28:59.945Z,73.82
2022-10-11T21:31:31.078Z,74.45
2022-10-11T21:34:01.239Z,72.55
2022-10-11T21:36:28.435Z,67.32
2022-10-11T21:39:15.699Z,73.47
2022-10-11T21:41:42.366Z,72.28
2022-10-11T21:44:09.993Z,77.95
2022-10-11T21:47:04.933Z,74.55
2022-10-11T21:49:23.909Z,73.97
2022-10-11T21:51:51.056Z,77.45
2022-10-11T21:54:18.617Z,75.00
2022-10-11T21:56:45.361Z,73.10
2022-10-11T21:59:12.987Z,69.35
2022-10-11T22:01:41.283Z,59.78
2022-10-11T22:04:09.215Z,64.13
2022-10-11T22:06:36.828Z,65.80
2022-10-11T22:09:06.011Z,59.75
2022-10-11T22:11:32.724Z,60.20
2022-10-11T22:13:59.618Z,69.55
2022-10-11T22:16:26.235Z,68.80
2022-10-11T22:18:56.105Z,69.43
2022-10-11T22:21:23.844Z,65.78
2022-10-11T22:23:52.396Z,66.18
2022-10-11T22:26:21.631Z,72.82
2022-10-11T22:28:48.761Z,70.07
2022-10-11T22:31:17.511Z,79.35
2022-10-11T22:36:12.987Z,76.97
2022-10-11T22:38:41.484Z,74.82
2022-10-11T22:41:08.829Z,73.35
2022-10-11T22:43:35.671Z,69.32
2022-10-11T22:46:02.647Z,77.95
2022-10-11T22:48:29.870Z,78.45
2022-10-11T22:50:56.528Z,73.28
2022-10-11T22:53:23.189Z,62.90
2022-10-11T22:55:49.824Z,64.30
2022-10-11T22:58:16.455Z,66.60
2022-10-11T23:00:43.320Z,77.57
2022-10-11T23:03:14.183Z,80.90
2022-10-11T23:05:41.005Z,75.43
2022-10-11T23:08:09.508Z,74.60
2022-10-11T23:10:40.083Z,70.75
2022-10-11T23:13:07.029Z,73.72
2022-10-11T23:15:33.591Z,77.10
2022-10-11T23:18:00.287Z,77.35
2022-10-11T23:20:26.996Z,77.50
2022-10-11T23:22:53.676Z,78.13
2022-10-11T23:25:20.301Z,78.13
2022-10-11T23:27:46.863Z,81.25
2022-10-11T23:30:14.324Z,82.47
2022-10-11T23:32:40.905Z,77.55
2022-10-11T23:35:07.887Z,79.13
2022-10-11T23:37:34.682Z,78.28
2022-10-11T23:40:01.535Z,82.72
2022-10-11T23:42:28.170Z,70.82
2022-10-11T23:44:54.793Z,86.75
2022-10-11T23:47:21.409Z,87.47
2022-10-11T23:49:47.969Z,78.82
2022-10-11T23:52:14.575Z,86.80
2022-10-11T23:54:41.205Z,90.60
2022-10-11T23:57:07.798Z,89.10
2022-10-11T23:59:34.379Z,87.38
